sensor_id;sensor_type;location;lat;lon;timestamp;temperature;humidity
79026;DHT22;71097;44.760;37.726;2023-07-20T00:00:34;20.59;72.80
79026;DHT22;71097;44.760;37.726;2023-07-20T00:01:39;20.58;72.64
79026;DHT22;71097;44.760;37.726;2023-07-20T00:02:49;20.60;72.44
79026;DHT22;71097;44.760;37.726;2023-07-20T00:03:58;20.57;72.31
79026;DHT22;71097;44.760;37.726;2023-07-20T00:05:00;20.58;72.38
79026;DHT22;71097;44.760;37.726;2023-07-20T00:06:05;20.59;72.44
79026;DHT22;71097;44.760;37.726;2023-07-20T00:07:07;20.62;71.90
79026;DHT22;71097;44.760;37.726;2023-07-20T00:08:09;20.63;72.23
79026;DHT22;71097;44.760;37.726;2023-07-20T00:09:13;20.63;72.07
79026;DHT22;71097;44.760;37.726;2023-07-20T00:10:15;20.61;72.16
79026;DHT22;71097;44.760;37.726;2023-07-20T00:11:20;20.62;72.14
79026;DHT22;71097;44.760;37.726;2023-07-20T00:12:21;20.59;72.03
79026;DHT22;71097;44.760;37.726;2023-07-20T00:13:26;20.62;71.45
79026;DHT22;71097;44.760;37.726;2023-07-20T00:14:31;20.62;71.51
79026;DHT22;71097;44.760;37.726;2023-07-20T00:15:39;20.60;71.96
79026;DHT22;71097;44.760;37.726;2023-07-20T00:16:45;20.57;72.65
79026;DHT22;71097;44.760;37.726;2023-07-20T00:18:04;20.50;72.45
79026;DHT22;71097;44.760;37.726;2023-07-20T00:19:08;20.50;72.83
79026;DHT22;71097;44.760;37.726;2023-07-20T00:20:13;20.50;72.68
79026;DHT22;71097;44.760;37.726;2023-07-20T00:21:15;20.50;72.54
79026;DHT22;71097;44.760;37.726;2023-07-20T00:22:23;20.45;72.51
79026;DHT22;71097;44.760;37.726;2023-07-20T00:23:27;20.37;72.88
79026;DHT22;71097;44.760;37.726;2023-07-20T00:24:32;20.35;72.91
79026;DHT22;71097;44.760;37.726;2023-07-20T00:25:37;20.32;73.32
79026;DHT22;71097;44.760;37.726;2023-07-20T00:26:41;20.30;72.92
79026;DHT22;71097;44.760;37.726;2023-07-20T00:27:44;20.31;72.92
79026;DHT22;71097;44.760;37.726;2023-07-20T00:28:46;20.29;73.25
79026;DHT22;71097;44.760;37.726;2023-07-20T00:29:48;20.27;73.07
79026;DHT22;71097;44.760;37.726;2023-07-20T00:30:55;20.26;73.74
79026;DHT22;71097;44.760;37.726;2023-07-20T00:31:59;20.20;73.29
79026;DHT22;71097;44.760;37.726;2023-07-20T00:33:04;20.16;73.56
79026;DHT22;71097;44.760;37.726;2023-07-20T00:34:06;20.11;74.16
79026;DHT22;71097;44.760;37.726;2023-07-20T00:35:09;20.07;74.38
79026;DHT22;71097;44.760;37.726;2023-07-20T00:36:11;20.07;73.81
79026;DHT22;71097;44.760;37.726;2023-07-20T00:37:13;20.01;73.56
79026;DHT22;71097;44.760;37.726;2023-07-20T00:38:14;20.00;73.73
79026;DHT22;71097;44.760;37.726;2023-07-20T00:39:16;20.00;73.73
79026;DHT22;71097;44.760;37.726;2023-07-20T00:40:20;19.99;73.98
79026;DHT22;71097;44.760;37.726;2023-07-20T00:41:23;19.97;73.91
79026;DHT22;71097;44.760;37.726;2023-07-20T00:42:25;19.99;73.41
79026;DHT22;71097;44.760;37.726;2023-07-20T00:43:27;20.01;74.22
79026;DHT22;71097;44.760;37.726;2023-07-20T00:44:28;19.99;74.33
79026;DHT22;71097;44.760;37.726;2023-07-20T00:45:31;19.99;73.64
79026;DHT22;71097;44.760;37.726;2023-07-20T00:46:34;19.98;74.00
79026;DHT22;71097;44.760;37.726;2023-07-20T00:47:36;19.95;74.56
79026;DHT22;71097;44.760;37.726;2023-07-20T00:48:41;19.94;74.73
79026;DHT22;71097;44.760;37.726;2023-07-20T00:49:44;19.92;74.03
79026;DHT22;71097;44.760;37.726;2023-07-20T00:50:52;19.91;74.25
79026;DHT22;71097;44.760;37.726;2023-07-20T00:51:53;19.90;74.64
79026;DHT22;71097;44.760;37.726;2023-07-20T00:52:56;19.87;74.53
79026;DHT22;71097;44.760;37.726;2023-07-20T00:53:58;19.86;73.97
79026;DHT22;71097;44.760;37.726;2023-07-20T00:55:02;19.86;74.09
79026;DHT22;71097;44.760;37.726;2023-07-20T00:56:05;19.83;73.94
79026;DHT22;71097;44.760;37.726;2023-07-20T00:57:16;19.89;73.88
79026;DHT22;71097;44.760;37.726;2023-07-20T00:58:33;19.88;74.05
79026;DHT22;71097;44.760;37.726;2023-07-20T00:59:41;19.85;74.05
79026;DHT22;71097;44.760;37.726;2023-07-20T01:00:46;19.88;73.82
79026;DHT22;71097;44.760;37.726;2023-07-20T01:01:51;19.90;73.86
79026;DHT22;71097;44.760;37.726;2023-07-20T01:02:55;19.94;73.77
79026;DHT22;71097;44.760;37.726;2023-07-20T01:04:00;19.96;73.60
79026;DHT22;71097;44.760;37.726;2023-07-20T01:05:08;20.01;73.83
79026;DHT22;71097;44.760;37.726;2023-07-20T01:07:38;20.04;73.67
79026;DHT22;71097;44.760;37.726;2023-07-20T01:11:53;20.06;74.06
79026;DHT22;71097;44.760;37.726;2023-07-20T01:13:00;20.06;73.98
79026;DHT22;71097;44.760;37.726;2023-07-20T01:14:05;20.09;74.10
79026;DHT22;71097;44.760;37.726;2023-07-20T01:15:08;20.09;73.91
79026;DHT22;71097;44.760;37.726;2023-07-20T01:16:13;20.11;73.68
79026;DHT22;71097;44.760;37.726;2023-07-20T01:17:17;20.12;74.18
79026;DHT22;71097;44.760;37.726;2023-07-20T01:18:19;20.11;74.27
79026;DHT22;71097;44.760;37.726;2023-07-20T01:19:23;20.09;74.54
79026;DHT22;71097;44.760;37.726;2023-07-20T01:20:25;20.04;74.50
79026;DHT22;71097;44.760;37.726;2023-07-20T01:23:22;20.05;73.92
79026;DHT22;71097;44.760;37.726;2023-07-20T01:24:52;20.01;73.83
79026;DHT22;71097;44.760;37.726;2023-07-20T01:26:23;19.97;74.93
79026;DHT22;71097;44.760;37.726;2023-07-20T01:30:46;19.97;74.51
79026;DHT22;71097;44.760;37.726;2023-07-20T01:31:57;19.97;74.74
79026;DHT22;71097;44.760;37.726;2023-07-20T01:32:59;19.97;75.13
79026;DHT22;71097;44.760;37.726;2023-07-20T01:34:02;19.94;76.10
79026;DHT22;71097;44.760;37.726;2023-07-20T01:35:10;19.89;75.90
79026;DHT22;71097;44.760;37.726;2023-07-20T01:36:18;19.88;75.46
79026;DHT22;71097;44.760;37.726;2023-07-20T01:37:21;19.87;75.20
79026;DHT22;71097;44.760;37.726;2023-07-20T01:38:29;19.87;75.42
79026;DHT22;71097;44.760;37.726;2023-07-20T01:39:31;19.86;75.34
79026;DHT22;71097;44.760;37.726;2023-07-20T01:40:38;19.82;75.48
79026;DHT22;71097;44.760;37.726;2023-07-20T01:41:44;19.80;75.43
79026;DHT22;71097;44.760;37.726;2023-07-20T01:42:47;19.77;75.21
79026;DHT22;71097;44.760;37.726;2023-07-20T01:43:49;19.80;75.50
79026;DHT22;71097;44.760;37.726;2023-07-20T01:44:51;19.80;75.02
79026;DHT22;71097;44.760;37.726;2023-07-20T01:45:58;19.81;75.37
79026;DHT22;71097;44.760;37.726;2023-07-20T01:47:02;19.79;76.41
79026;DHT22;71097;44.760;37.726;2023-07-20T01:48:06;19.72;76.17
79026;DHT22;71097;44.760;37.726;2023-07-20T01:49:08;19.70;76.00
79026;DHT22;71097;44.760;37.726;2023-07-20T01:50:10;19.68;76.17
79026;DHT22;71097;44.760;37.726;2023-07-20T01:51:12;19.68;75.27
79026;DHT22;71097;44.760;37.726;2023-07-20T01:52:14;19.71;75.16
79026;DHT22;71097;44.760;37.726;2023-07-20T01:53:20;19.77;74.50
79026;DHT22;71097;44.760;37.726;2023-07-20T01:54:23;19.77;75.03
79026;DHT22;71097;44.760;37.726;2023-07-20T01:55:24;19.74;75.67
79026;DHT22;71097;44.760;37.726;2023-07-20T01:56:32;19.69;75.09
79026;DHT22;71097;44.760;37.726;2023-07-20T01:57:43;19.65;74.99
79026;DHT22;71097;44.760;37.726;2023-07-20T01:58:44;19.60;76.15
79026;DHT22;71097;44.760;37.726;2023-07-20T01:59:48;19.54;75.34
79026;DHT22;71097;44.760;37.726;2023-07-20T02:00:50;19.54;75.79
79026;DHT22;71097;44.760;37.726;2023-07-20T02:01:57;19.52;75.99
79026;DHT22;71097;44.760;37.726;2023-07-20T02:02:59;19.52;76.23
79026;DHT22;71097;44.760;37.726;2023-07-20T02:04:00;19.53;75.63
79026;DHT22;71097;44.760;37.726;2023-07-20T02:05:13;19.55;75.33
79026;DHT22;71097;44.760;37.726;2023-07-20T02:06:17;19.61;75.37
79026;DHT22;71097;44.760;37.726;2023-07-20T02:07:22;19.60;75.70
79026;DHT22;71097;44.760;37.726;2023-07-20T02:08:24;19.61;75.94
79026;DHT22;71097;44.760;37.726;2023-07-20T02:09:28;19.61;75.78
79026;DHT22;71097;44.760;37.726;2023-07-20T02:10:30;19.58;75.32
79026;DHT22;71097;44.760;37.726;2023-07-20T02:11:35;19.61;75.00
79026;DHT22;71097;44.760;37.726;2023-07-20T02:12:37;19.67;75.61
79026;DHT22;71097;44.760;37.726;2023-07-20T02:13:38;19.63;75.54
79026;DHT22;71097;44.760;37.726;2023-07-20T02:14:42;19.70;73.98
79026;DHT22;71097;44.760;37.726;2023-07-20T02:15:44;19.75;74.52
79026;DHT22;71097;44.760;37.726;2023-07-20T02:16:49;19.74;75.20
79026;DHT22;71097;44.760;37.726;2023-07-20T02:17:55;19.73;75.39
79026;DHT22;71097;44.760;37.726;2023-07-20T02:18:57;19.70;75.43
79026;DHT22;71097;44.760;37.726;2023-07-20T02:19:59;19.73;75.03
79026;DHT22;71097;44.760;37.726;2023-07-20T02:21:01;19.73;75.69
79026;DHT22;71097;44.760;37.726;2023-07-20T02:22:03;19.72;75.78
79026;DHT22;71097;44.760;37.726;2023-07-20T02:23:09;19.70;76.59
79026;DHT22;71097;44.760;37.726;2023-07-20T02:24:12;19.69;77.48
79026;DHT22;71097;44.760;37.726;2023-07-20T02:25:14;19.69;76.52
79026;DHT22;71097;44.760;37.726;2023-07-20T02:26:16;19.68;76.44
79026;DHT22;71097;44.760;37.726;2023-07-20T02:27:18;19.68;75.71
79026;DHT22;71097;44.760;37.726;2023-07-20T02:28:20;19.73;75.82
79026;DHT22;71097;44.760;37.726;2023-07-20T02:29:21;19.75;76.18
79026;DHT22;71097;44.760;37.726;2023-07-20T02:30:26;19.76;76.16
79026;DHT22;71097;44.760;37.726;2023-07-20T02:31:30;19.76;76.26
79026;DHT22;71097;44.760;37.726;2023-07-20T02:32:34;19.79;76.16
79026;DHT22;71097;44.760;37.726;2023-07-20T02:33:36;19.82;75.96
79026;DHT22;71097;44.760;37.726;2023-07-20T02:34:37;19.82;76.22
79026;DHT22;71097;44.760;37.726;2023-07-20T02:35:40;19.82;76.08
79026;DHT22;71097;44.760;37.726;2023-07-20T02:36:46;19.87;75.64
79026;DHT22;71097;44.760;37.726;2023-07-20T02:37:47;19.91;75.70
79026;DHT22;71097;44.760;37.726;2023-07-20T02:38:49;19.94;76.21
79026;DHT22;71097;44.760;37.726;2023-07-20T02:39:53;19.94;76.07
79026;DHT22;71097;44.760;37.726;2023-07-20T02:40:55;19.92;75.97
79026;DHT22;71097;44.760;37.726;2023-07-20T02:41:57;19.97;75.72
79026;DHT22;71097;44.760;37.726;2023-07-20T02:43:00;20.02;75.34
79026;DHT22;71097;44.760;37.726;2023-07-20T02:44:02;20.04;75.15
79026;DHT22;71097;44.760;37.726;2023-07-20T02:45:08;20.07;75.77
79026;DHT22;71097;44.760;37.726;2023-07-20T02:46:10;20.11;75.69
79026;DHT22;71097;44.760;37.726;2023-07-20T02:47:13;20.11;75.94
79026;DHT22;71097;44.760;37.726;2023-07-20T02:48:15;20.10;77.06
79026;DHT22;71097;44.760;37.726;2023-07-20T02:49:16;20.05;76.68
79026;DHT22;71097;44.760;37.726;2023-07-20T02:50:18;20.04;76.62
79026;DHT22;71097;44.760;37.726;2023-07-20T02:51:22;20.10;76.49
79026;DHT22;71097;44.760;37.726;2023-07-20T02:52:27;20.12;76.24
79026;DHT22;71097;44.760;37.726;2023-07-20T02:53:31;20.16;76.20
79026;DHT22;71097;44.760;37.726;2023-07-20T02:54:33;20.17;76.07
79026;DHT22;71097;44.760;37.726;2023-07-20T02:55:54;20.21;75.78
79026;DHT22;71097;44.760;37.726;2023-07-20T02:56:56;20.22;75.54
79026;DHT22;71097;44.760;37.726;2023-07-20T02:57:58;20.27;75.32
79026;DHT22;71097;44.760;37.726;2023-07-20T02:59:02;20.33;75.13
79026;DHT22;71097;44.760;37.726;2023-07-20T03:00:07;20.36;74.89
79026;DHT22;71097;44.760;37.726;2023-07-20T03:01:09;20.41;74.88
79026;DHT22;71097;44.760;37.726;2023-07-20T03:02:12;20.47;74.79
79026;DHT22;71097;44.760;37.726;2023-07-20T03:03:19;20.53;74.40
79026;DHT22;71097;44.760;37.726;2023-07-20T03:04:26;20.61;73.93
79026;DHT22;71097;44.760;37.726;2023-07-20T03:05:27;20.69;73.82
79026;DHT22;71097;44.760;37.726;2023-07-20T03:06:30;20.75;73.95
79026;DHT22;71097;44.760;37.726;2023-07-20T03:07:31;20.81;73.85
79026;DHT22;71097;44.760;37.726;2023-07-20T03:08:34;20.85;74.13
79026;DHT22;71097;44.760;37.726;2023-07-20T03:09:39;20.88;73.83
79026;DHT22;71097;44.760;37.726;2023-07-20T03:10:42;20.92;73.61
79026;DHT22;71097;44.760;37.726;2023-07-20T03:11:43;20.96;73.60
79026;DHT22;71097;44.760;37.726;2023-07-20T03:12:46;21.01;73.46
79026;DHT22;71097;44.760;37.726;2023-07-20T03:13:48;21.05;73.25
79026;DHT22;71097;44.760;37.726;2023-07-20T03:14:53;21.09;73.18
79026;DHT22;71097;44.760;37.726;2023-07-20T03:16:09;21.14;72.92
79026;DHT22;71097;44.760;37.726;2023-07-20T03:17:43;21.25;72.08
79026;DHT22;71097;44.760;37.726;2023-07-20T03:18:50;21.32;71.87
79026;DHT22;71097;44.760;37.726;2023-07-20T03:19:52;21.38;71.50
79026;DHT22;71097;44.760;37.726;2023-07-20T03:20:54;21.44;71.36
79026;DHT22;71097;44.760;37.726;2023-07-20T03:21:56;21.52;70.95
79026;DHT22;71097;44.760;37.726;2023-07-20T03:22:58;21.58;70.48
79026;DHT22;71097;44.760;37.726;2023-07-20T03:23:59;21.64;70.79
79026;DHT22;71097;44.760;37.726;2023-07-20T03:25:01;21.70;70.98
79026;DHT22;71097;44.760;37.726;2023-07-20T03:26:03;21.75;70.38
79026;DHT22;71097;44.760;37.726;2023-07-20T03:27:06;21.83;69.90
79026;DHT22;71097;44.760;37.726;2023-07-20T03:28:08;21.92;70.00
79026;DHT22;71097;44.760;37.726;2023-07-20T03:29:14;21.97;69.33
79026;DHT22;71097;44.760;37.726;2023-07-20T03:30:21;22.02;69.06
79026;DHT22;71097;44.760;37.726;2023-07-20T03:31:23;22.08;68.92
79026;DHT22;71097;44.760;37.726;2023-07-20T03:32:27;22.13;68.58
79026;DHT22;71097;44.760;37.726;2023-07-20T03:33:30;22.22;68.78
79026;DHT22;71097;44.760;37.726;2023-07-20T03:34:36;22.28;67.81
79026;DHT22;71097;44.760;37.726;2023-07-20T03:35:42;22.31;68.16
79026;DHT22;71097;44.760;37.726;2023-07-20T03:36:47;22.35;68.52
79026;DHT22;71097;44.760;37.726;2023-07-20T03:37:49;22.43;68.01
79026;DHT22;71097;44.760;37.726;2023-07-20T03:39:14;22.46;67.34
79026;DHT22;71097;44.760;37.726;2023-07-20T03:40:29;22.49;67.41
79026;DHT22;71097;44.760;37.726;2023-07-20T03:42:25;22.70;66.98
79026;DHT22;71097;44.760;37.726;2023-07-20T03:43:36;22.90;66.78
79026;DHT22;71097;44.760;37.726;2023-07-20T03:44:46;23.03;66.33
79026;DHT22;71097;44.760;37.726;2023-07-20T03:45:56;23.16;66.45
79026;DHT22;71097;44.760;37.726;2023-07-20T03:47:08;23.28;65.41
79026;DHT22;71097;44.760;37.726;2023-07-20T03:48:36;23.40;65.21
79026;DHT22;71097;44.760;37.726;2023-07-20T03:49:41;23.53;64.66
79026;DHT22;71097;44.760;37.726;2023-07-20T03:50:47;23.62;64.84
79026;DHT22;71097;44.760;37.726;2023-07-20T03:51:56;23.69;64.50
79026;DHT22;71097;44.760;37.726;2023-07-20T03:55:40;23.99;64.34
79026;DHT22;71097;44.760;37.726;2023-07-20T03:57:13;24.29;63.81
79026;DHT22;71097;44.760;37.726;2023-07-20T03:59:24;24.66;62.15
79026;DHT22;71097;44.760;37.726;2023-07-20T04:01:13;24.93;61.50
79026;DHT22;71097;44.760;37.726;2023-07-20T04:02:38;25.09;60.85
79026;DHT22;71097;44.760;37.726;2023-07-20T04:04:16;25.28;60.73
79026;DHT22;71097;44.760;37.726;2023-07-20T04:05:49;25.47;60.09
79026;DHT22;71097;44.760;37.726;2023-07-20T04:07:19;25.63;59.19
79026;DHT22;71097;44.760;37.726;2023-07-20T04:08:39;25.73;58.59
79026;DHT22;71097;44.760;37.726;2023-07-20T04:10:14;26.08;57.89
79026;DHT22;71097;44.760;37.726;2023-07-20T04:11:38;26.28;57.15
79026;DHT22;71097;44.760;37.726;2023-07-20T04:18:21;27.02;54.40
79026;DHT22;71097;44.760;37.726;2023-07-20T04:23:58;27.71;52.17
79026;DHT22;71097;44.760;37.726;2023-07-20T04:31:36;28.77;48.64
79026;DHT22;71097;44.760;37.726;2023-07-20T04:32:47;28.92;48.21
79026;DHT22;71097;44.760;37.726;2023-07-20T04:38:04;29.22;47.37
79026;DHT22;71097;44.760;37.726;2023-07-20T04:40:49;29.36;46.89
79026;DHT22;71097;44.760;37.726;2023-07-20T04:43:38;29.42;47.25
79026;DHT22;71097;44.760;37.726;2023-07-20T04:44:50;29.58;46.70
79026;DHT22;71097;44.760;37.726;2023-07-20T04:46:15;29.86;45.47
79026;DHT22;71097;44.760;37.726;2023-07-20T04:48:45;29.97;45.78
79026;DHT22;71097;44.760;37.726;2023-07-20T04:49:53;30.17;44.87
79026;DHT22;71097;44.760;37.726;2023-07-20T04:51:03;30.33;45.10
79026;DHT22;71097;44.760;37.726;2023-07-20T04:53:00;30.59;44.09
79026;DHT22;71097;44.760;37.726;2023-07-20T04:54:38;30.77;43.28
79026;DHT22;71097;44.760;37.726;2023-07-20T04:55:51;30.92;43.35
79026;DHT22;71097;44.760;37.726;2023-07-20T04:56:54;30.76;43.65
79026;DHT22;71097;44.760;37.726;2023-07-20T04:57:57;30.83;43.18
79026;DHT22;71097;44.760;37.726;2023-07-20T04:59:02;30.97;42.68
79026;DHT22;71097;44.760;37.726;2023-07-20T05:00:11;31.06;41.95
79026;DHT22;71097;44.760;37.726;2023-07-20T05:01:35;31.24;41.45
79026;DHT22;71097;44.760;37.726;2023-07-20T05:02:59;31.45;40.88
79026;DHT22;71097;44.760;37.726;2023-07-20T05:04:08;31.59;40.65
79026;DHT22;71097;44.760;37.726;2023-07-20T05:05:41;31.66;40.23
79026;DHT22;71097;44.760;37.726;2023-07-20T05:06:50;31.78;38.98
79026;DHT22;71097;44.760;37.726;2023-07-20T05:07:58;31.87;38.89
79026;DHT22;71097;44.760;37.726;2023-07-20T05:09:03;32.02;37.56
79026;DHT22;71097;44.760;37.726;2023-07-20T05:10:22;32.23;37.95
79026;DHT22;71097;44.760;37.726;2023-07-20T05:11:35;32.29;38.22
79026;DHT22;71097;44.760;37.726;2023-07-20T05:12:42;32.29;37.73
79026;DHT22;71097;44.760;37.726;2023-07-20T05:13:46;32.37;37.68
79026;DHT22;71097;44.760;37.726;2023-07-20T05:14:52;32.29;37.14
79026;DHT22;71097;44.760;37.726;2023-07-20T05:16:15;32.35;37.21
79026;DHT22;71097;44.760;37.726;2023-07-20T05:17:27;32.24;38.46
79026;DHT22;71097;44.760;37.726;2023-07-20T05:18:37;32.37;37.29
79026;DHT22;71097;44.760;37.726;2023-07-20T05:19:50;32.33;37.21
79026;DHT22;71097;44.760;37.726;2023-07-20T05:21:12;32.44;36.99
79026;DHT22;71097;44.760;37.726;2023-07-20T05:22:17;32.59;37.54
79026;DHT22;71097;44.760;37.726;2023-07-20T05:23:29;32.64;38.05
79026;DHT22;71097;44.760;37.726;2023-07-20T05:24:41;32.76;41.03
79026;DHT22;71097;44.760;37.726;2023-07-20T05:26:05;32.88;38.59
79026;DHT22;71097;44.760;37.726;2023-07-20T05:27:25;32.94;37.71
79026;DHT22;71097;44.760;37.726;2023-07-20T05:28:36;32.91;36.89
79026;DHT22;71097;44.760;37.726;2023-07-20T05:29:53;32.99;37.80
79026;DHT22;71097;44.760;37.726;2023-07-20T05:30:58;33.08;36.93
79026;DHT22;71097;44.760;37.726;2023-07-20T05:32:07;33.20;37.06
79026;DHT22;71097;44.760;37.726;2023-07-20T05:33:37;33.20;38.15
79026;DHT22;71097;44.760;37.726;2023-07-20T05:34:54;33.25;37.37
79026;DHT22;71097;44.760;37.726;2023-07-20T05:36:11;33.17;36.23
79026;DHT22;71097;44.760;37.726;2023-07-20T05:37:22;33.15;36.82
79026;DHT22;71097;44.760;37.726;2023-07-20T05:38:44;33.17;37.30
79026;DHT22;71097;44.760;37.726;2023-07-20T05:40:05;33.28;36.82
79026;DHT22;71097;44.760;37.726;2023-07-20T05:42:12;33.14;36.24
79026;DHT22;71097;44.760;37.726;2023-07-20T05:43:23;33.01;36.12
79026;DHT22;71097;44.760;37.726;2023-07-20T05:44:42;32.82;36.73
79026;DHT22;71097;44.760;37.726;2023-07-20T05:45:48;32.81;37.14
79026;DHT22;71097;44.760;37.726;2023-07-20T05:47:07;32.96;36.72
79026;DHT22;71097;44.760;37.726;2023-07-20T05:48:16;32.85;36.94
79026;DHT22;71097;44.760;37.726;2023-07-20T05:49:20;32.71;36.88
79026;DHT22;71097;44.760;37.726;2023-07-20T05:50:22;32.75;35.75
79026;DHT22;71097;44.760;37.726;2023-07-20T05:51:24;32.78;35.43
79026;DHT22;71097;44.760;37.726;2023-07-20T05:52:26;32.82;35.40
79026;DHT22;71097;44.760;37.726;2023-07-20T05:53:31;32.91;35.49
79026;DHT22;71097;44.760;37.726;2023-07-20T05:54:35;32.75;36.27
79026;DHT22;71097;44.760;37.726;2023-07-20T05:55:37;32.67;35.93
79026;DHT22;71097;44.760;37.726;2023-07-20T05:56:43;32.62;36.00
79026;DHT22;71097;44.760;37.726;2023-07-20T05:57:52;32.66;36.25
79026;DHT22;71097;44.760;37.726;2023-07-20T05:59:11;32.72;35.70
79026;DHT22;71097;44.760;37.726;2023-07-20T06:00:19;32.85;34.89
79026;DHT22;71097;44.760;37.726;2023-07-20T06:01:37;32.91;33.85
79026;DHT22;71097;44.760;37.726;2023-07-20T06:02:42;32.98;34.35
79026;DHT22;71097;44.760;37.726;2023-07-20T06:04:22;33.06;34.02
79026;DHT22;71097;44.760;37.726;2023-07-20T06:05:42;33.18;34.54
79026;DHT22;71097;44.760;37.726;2023-07-20T06:07:11;33.15;34.34
79026;DHT22;71097;44.760;37.726;2023-07-20T06:08:38;33.07;33.76
79026;DHT22;71097;44.760;37.726;2023-07-20T06:10:13;33.02;33.28
79026;DHT22;71097;44.760;37.726;2023-07-20T06:12:00;33.11;33.89
79026;DHT22;71097;44.760;37.726;2023-07-20T06:13:19;33.29;33.81
79026;DHT22;71097;44.760;37.726;2023-07-20T06:14:42;33.31;33.76
79026;DHT22;71097;44.760;37.726;2023-07-20T06:15:56;33.33;32.61
79026;DHT22;71097;44.760;37.726;2023-07-20T06:17:26;33.21;33.43
79026;DHT22;71097;44.760;37.726;2023-07-20T06:18:46;33.23;33.23
79026;DHT22;71097;44.760;37.726;2023-07-20T06:20:16;33.12;33.54
79026;DHT22;71097;44.760;37.726;2023-07-20T06:21:41;33.18;32.94
79026;DHT22;71097;44.760;37.726;2023-07-20T06:23:22;33.29;33.21
79026;DHT22;71097;44.760;37.726;2023-07-20T06:24:33;33.31;32.71
79026;DHT22;71097;44.760;37.726;2023-07-20T06:25:41;33.28;32.87
79026;DHT22;71097;44.760;37.726;2023-07-20T06:27:03;33.30;33.66
79026;DHT22;71097;44.760;37.726;2023-07-20T06:28:42;33.38;31.45
79026;DHT22;71097;44.760;37.726;2023-07-20T06:32:05;33.73;32.02
79026;DHT22;71097;44.760;37.726;2023-07-20T06:33:47;33.81;30.55
79026;DHT22;71097;44.760;37.726;2023-07-20T06:35:00;33.86;30.87
79026;DHT22;71097;44.760;37.726;2023-07-20T06:36:36;33.87;29.29
79026;DHT22;71097;44.760;37.726;2023-07-20T06:38:06;33.80;30.29
79026;DHT22;71097;44.760;37.726;2023-07-20T06:39:08;33.73;31.02
79026;DHT22;71097;44.760;37.726;2023-07-20T06:41:01;33.79;30.24
79026;DHT22;71097;44.760;37.726;2023-07-20T06:42:27;33.77;31.29
79026;DHT22;71097;44.760;37.726;2023-07-20T06:43:33;33.65;30.80
79026;DHT22;71097;44.760;37.726;2023-07-20T06:44:39;33.70;33.38
79026;DHT22;71097;44.760;37.726;2023-07-20T06:45:41;33.74;31.04
79026;DHT22;71097;44.760;37.726;2023-07-20T06:46:43;33.67;30.50
79026;DHT22;71097;44.760;37.726;2023-07-20T06:47:44;33.75;30.43
79026;DHT22;71097;44.760;37.726;2023-07-20T06:48:46;33.63;30.63
79026;DHT22;71097;44.760;37.726;2023-07-20T06:49:47;33.57;31.64
79026;DHT22;71097;44.760;37.726;2023-07-20T06:50:49;33.50;30.62
79026;DHT22;71097;44.760;37.726;2023-07-20T06:51:50;33.59;30.35
79026;DHT22;71097;44.760;37.726;2023-07-20T06:52:52;33.71;29.94
79026;DHT22;71097;44.760;37.726;2023-07-20T06:53:54;33.81;31.09
79026;DHT22;71097;44.760;37.726;2023-07-20T06:54:55;33.95;30.41
79026;DHT22;71097;44.760;37.726;2023-07-20T06:55:57;34.11;30.76
79026;DHT22;71097;44.760;37.726;2023-07-20T06:56:59;34.02;30.53
79026;DHT22;71097;44.760;37.726;2023-07-20T06:58:01;34.04;30.43
79026;DHT22;71097;44.760;37.726;2023-07-20T06:59:02;34.02;30.49
79026;DHT22;71097;44.760;37.726;2023-07-20T07:00:04;33.99;30.48
79026;DHT22;71097;44.760;37.726;2023-07-20T07:01:08;33.97;30.93
79026;DHT22;71097;44.760;37.726;2023-07-20T07:02:10;33.95;30.98
79026;DHT22;71097;44.760;37.726;2023-07-20T07:03:11;34.00;29.72
79026;DHT22;71097;44.760;37.726;2023-07-20T07:04:12;34.11;29.77
79026;DHT22;71097;44.760;37.726;2023-07-20T07:05:14;34.30;29.51
79026;DHT22;71097;44.760;37.726;2023-07-20T07:06:16;34.42;29.32
79026;DHT22;71097;44.760;37.726;2023-07-20T07:07:18;34.35;29.06
79026;DHT22;71097;44.760;37.726;2023-07-20T07:08:19;34.29;31.03
79026;DHT22;71097;44.760;37.726;2023-07-20T07:09:21;34.29;29.28
79026;DHT22;71097;44.760;37.726;2023-07-20T07:10:22;34.23;28.83
79026;DHT22;71097;44.760;37.726;2023-07-20T07:11:24;34.24;29.74
79026;DHT22;71097;44.760;37.726;2023-07-20T07:12:26;34.33;30.29
79026;DHT22;71097;44.760;37.726;2023-07-20T07:13:27;34.26;28.10
79026;DHT22;71097;44.760;37.726;2023-07-20T07:14:29;34.06;29.26
79026;DHT22;71097;44.760;37.726;2023-07-20T07:15:31;33.94;28.83
79026;DHT22;71097;44.760;37.726;2023-07-20T07:16:32;34.00;28.62
79026;DHT22;71097;44.760;37.726;2023-07-20T07:17:34;33.94;28.81
79026;DHT22;71097;44.760;37.726;2023-07-20T07:18:36;34.10;28.42
79026;DHT22;71097;44.760;37.726;2023-07-20T07:19:38;34.00;28.76
79026;DHT22;71097;44.760;37.726;2023-07-20T07:20:39;33.99;29.51
79026;DHT22;71097;44.760;37.726;2023-07-20T07:21:41;33.81;27.39
79026;DHT22;71097;44.760;37.726;2023-07-20T07:22:42;33.60;28.00
79026;DHT22;71097;44.760;37.726;2023-07-20T07:23:45;33.34;28.68
79026;DHT22;71097;44.760;37.726;2023-07-20T07:24:47;33.37;28.91
79026;DHT22;71097;44.760;37.726;2023-07-20T07:25:49;33.42;29.47
79026;DHT22;71097;44.760;37.726;2023-07-20T07:26:51;33.41;29.53
79026;DHT22;71097;44.760;37.726;2023-07-20T07:27:53;33.38;30.58
79026;DHT22;71097;44.760;37.726;2023-07-20T07:28:55;33.35;30.35
79026;DHT22;71097;44.760;37.726;2023-07-20T07:29:57;33.47;29.90
79026;DHT22;71097;44.760;37.726;2023-07-20T07:30:58;33.60;28.84
79026;DHT22;71097;44.760;37.726;2023-07-20T07:32:00;33.58;29.84
79026;DHT22;71097;44.760;37.726;2023-07-20T07:33:02;33.71;29.80
79026;DHT22;71097;44.760;37.726;2023-07-20T07:34:04;33.89;29.79
79026;DHT22;71097;44.760;37.726;2023-07-20T07:35:06;33.94;29.05
79026;DHT22;71097;44.760;37.726;2023-07-20T07:36:08;33.90;28.90
79026;DHT22;71097;44.760;37.726;2023-07-20T07:37:09;33.70;30.09
79026;DHT22;71097;44.760;37.726;2023-07-20T07:38:10;33.57;30.73
79026;DHT22;71097;44.760;37.726;2023-07-20T07:39:12;33.59;29.74
79026;DHT22;71097;44.760;37.726;2023-07-20T07:40:14;33.64;29.19
79026;DHT22;71097;44.760;37.726;2023-07-20T07:41:15;33.64;30.32
79026;DHT22;71097;44.760;37.726;2023-07-20T07:42:17;33.47;30.67
79026;DHT22;71097;44.760;37.726;2023-07-20T07:43:19;33.43;30.77
79026;DHT22;71097;44.760;37.726;2023-07-20T07:44:21;33.35;31.26
79026;DHT22;71097;44.760;37.726;2023-07-20T07:45:23;33.38;30.84